sensor_id;sensor_type;location;lat;lon;timestamp;P1;durP1;ratioP1;P2;durP2;ratioP2
54823;SDS011;40724;53.196;5.980;2022-10-13T00:02:15;22.65;;;14.23;;
54823;SDS011;40724;53.196;5.980;2022-10-13T00:04:41;21.70;;;13.38;;
54823;SDS011;40724;53.196;5.980;2022-10-13T00:07:07;23.15;;;14.10;;
54823;SDS011;40724;53.196;5.980;2022-10-13T00:09:33;26.02;;;14.45;;
54823;SDS011;40724;53.196;5.980;2022-10-13T00:12:00;26.23;;;15.50;;
54823;SDS011;40724;53.196;5.980;2022-10-13T00:14:26;23.35;;;14.48;;
54823;SDS011;40724;53.196;5.980;2022-10-13T00:16:52;21.58;;;14.82;;
54823;SDS011;40724;53.196;5.980;2022-10-13T00:19:18;23.38;;;15.60;;
54823;SDS011;40724;53.196;5.980;2022-10-13T00:21:44;30.00;;;14.57;;
54823;SDS011;40724;53.196;5.980;2022-10-13T00:24:10;22.58;;;15.23;;
54823;SDS011;40724;53.196;5.980;2022-10-13T00:26:36;24.92;;;14.77;;
54823;SDS011;40724;53.196;5.980;2022-10-13T00:29:02;20.58;;;14.40;;
54823;SDS011;40724;53.196;5.980;2022-10-13T00:31:29;25.80;;;13.90;;
54823;SDS011;40724;53.196;5.980;2022-10-13T00:33:59;24.20;;;14.00;;
54823;SDS011;40724;53.196;5.980;2022-10-13T00:36:25;28.10;;;14.80;;
54823;SDS011;40724;53.196;5.980;2022-10-13T00:38:51;20.25;;;15.48;;
54823;SDS011;40724;53.196;5.980;2022-10-13T00:41:17;17.60;;;13.38;;
54823;SDS011;40724;53.196;5.980;2022-10-13T00:43:54;25.02;;;14.60;;
54823;SDS011;40724;53.196;5.980;2022-10-13T00:46:31;24.10;;;13.93;;
54823;SDS011;40724;53.196;5.980;2022-10-13T00:48:58;19.17;;;15.18;;
54823;SDS011;40724;53.196;5.980;2022-10-13T00:51:25;26.85;;;16.42;;
54823;SDS011;40724;53.196;5.980;2022-10-13T00:53:52;23.35;;;14.60;;
54823;SDS011;40724;53.196;5.980;2022-10-13T00:56:20;19.23;;;12.75;;
54823;SDS011;40724;53.196;5.980;2022-10-13T00:58:47;21.92;;;13.15;;
54823;SDS011;40724;53.196;5.980;2022-10-13T01:01:13;19.85;;;13.98;;
54823;SDS011;40724;53.196;5.980;2022-10-13T01:03:40;22.27;;;13.30;;
54823;SDS011;40724;53.196;5.980;2022-10-13T01:06:06;27.67;;;15.50;;
54823;SDS011;40724;53.196;5.980;2022-10-13T01:08:33;22.77;;;13.55;;
54823;SDS011;40724;53.196;5.980;2022-10-13T01:16:34;21.90;;;13.95;;
54823;SDS011;40724;53.196;5.980;2022-10-13T01:31:47;25.33;;;14.15;;
54823;SDS011;40724;53.196;5.980;2022-10-13T01:34:17;23.17;;;13.70;;
54823;SDS011;40724;53.196;5.980;2022-10-13T01:36:52;25.48;;;12.65;;
54823;SDS011;40724;53.196;5.980;2022-10-13T01:42:03;22.70;;;14.80;;
54823;SDS011;40724;53.196;5.980;2022-10-13T01:44:37;22.45;;;13.88;;
54823;SDS011;40724;53.196;5.980;2022-10-13T01:47:04;23.83;;;13.88;;
54823;SDS011;40724;53.196;5.980;2022-10-13T01:49:32;23.65;;;15.25;;
54823;SDS011;40724;53.196;5.980;2022-10-13T01:52:03;31.10;;;15.02;;
54823;SDS011;40724;53.196;5.980;2022-10-13T01:54:31;25.33;;;13.10;;
54823;SDS011;40724;53.196;5.980;2022-10-13T01:56:57;17.75;;;12.45;;
54823;SDS011;40724;53.196;5.980;2022-10-13T01:59:24;26.45;;;14.15;;
54823;SDS011;40724;53.196;5.980;2022-10-13T02:01:53;22.50;;;13.88;;
54823;SDS011;40724;53.196;5.980;2022-10-13T02:04:28;21.00;;;14.02;;
54823;SDS011;40724;53.196;5.980;2022-10-13T02:07:30;20.02;;;13.25;;
54823;SDS011;40724;53.196;5.980;2022-10-13T02:12:19;25.17;;;13.20;;
54823;SDS011;40724;53.196;5.980;2022-10-13T02:14:48;20.00;;;12.93;;
54823;SDS011;40724;53.196;5.980;2022-10-13T02:17:15;25.23;;;14.80;;
54823;SDS011;40724;53.196;5.980;2022-10-13T02:19:42;22.58;;;13.07;;
54823;SDS011;40724;53.196;5.980;2022-10-13T02:22:08;21.58;;;13.85;;
54823;SDS011;40724;53.196;5.980;2022-10-13T02:24:35;22.35;;;12.52;;
54823;SDS011;40724;53.196;5.980;2022-10-13T02:27:03;24.85;;;13.80;;
54823;SDS011;40724;53.196;5.980;2022-10-13T02:29:30;27.70;;;15.63;;
54823;SDS011;40724;53.196;5.980;2022-10-13T02:31:56;20.52;;;14.27;;
54823;SDS011;40724;53.196;5.980;2022-10-13T02:34:22;22.40;;;15.20;;
54823;SDS011;40724;53.196;5.980;2022-10-13T02:36:48;23.27;;;13.30;;
54823;SDS011;40724;53.196;5.980;2022-10-13T02:39:15;23.15;;;13.13;;
54823;SDS011;40724;53.196;5.980;2022-10-13T02:41:41;22.40;;;12.45;;
54823;SDS011;40724;53.196;5.980;2022-10-13T02:44:08;21.98;;;14.13;;
54823;SDS011;40724;53.196;5.980;2022-10-13T02:46:34;22.02;;;12.05;;
54823;SDS011;40724;53.196;5.980;2022-10-13T02:49:00;18.83;;;13.70;;
54823;SDS011;40724;53.196;5.980;2022-10-13T02:51:26;23.13;;;14.32;;
54823;SDS011;40724;53.196;5.980;2022-10-13T02:53:52;22.58;;;14.52;;
54823;SDS011;40724;53.196;5.980;2022-10-13T02:56:18;23.70;;;13.70;;
54823;SDS011;40724;53.196;5.980;2022-10-13T02:58:44;21.48;;;14.30;;
54823;SDS011;40724;53.196;5.980;2022-10-13T03:01:12;19.42;;;13.75;;
54823;SDS011;40724;53.196;5.980;2022-10-13T03:03:38;23.80;;;14.27;;
54823;SDS011;40724;53.196;5.980;2022-10-13T03:06:04;19.85;;;12.23;;
54823;SDS011;40724;53.196;5.980;2022-10-13T03:08:31;26.33;;;13.90;;
54823;SDS011;40724;53.196;5.980;2022-10-13T03:10:58;19.92;;;13.82;;
54823;SDS011;40724;53.196;5.980;2022-10-13T03:13:24;24.52;;;13.57;;
54823;SDS011;40724;53.196;5.980;2022-10-13T03:15:50;20.30;;;12.93;;
54823;SDS011;40724;53.196;5.980;2022-10-13T03:18:16;20.13;;;12.77;;
54823;SDS011;40724;53.196;5.980;2022-10-13T03:20:42;21.42;;;12.82;;
54823;SDS011;40724;53.196;5.980;2022-10-13T03:23:08;19.13;;;14.35;;
54823;SDS011;40724;53.196;5.980;2022-10-13T03:25:35;22.75;;;15.10;;
54823;SDS011;40724;53.196;5.980;2022-10-13T03:28:01;19.20;;;12.50;;
54823;SDS011;40724;53.196;5.980;2022-10-13T03:30:27;21.08;;;13.82;;
54823;SDS011;40724;53.196;5.980;2022-10-13T03:32:53;20.77;;;13.38;;
54823;SDS011;40724;53.196;5.980;2022-10-13T03:35:19;18.65;;;12.70;;
54823;SDS011;40724;53.196;5.980;2022-10-13T03:37:45;23.05;;;14.13;;
54823;SDS011;40724;53.196;5.980;2022-10-13T03:40:11;20.58;;;13.23;;
54823;SDS011;40724;53.196;5.980;2022-10-13T03:42:38;20.83;;;13.70;;
54823;SDS011;40724;53.196;5.980;2022-10-13T03:45:04;19.90;;;12.68;;
54823;SDS011;40724;53.196;5.980;2022-10-13T03:47:30;20.60;;;13.63;;
54823;SDS011;40724;53.196;5.980;2022-10-13T03:49:57;21.33;;;12.48;;
54823;SDS011;40724;53.196;5.980;2022-10-13T03:52:23;22.13;;;13.20;;
54823;SDS011;40724;53.196;5.980;2022-10-13T03:54:49;17.45;;;13.25;;
54823;SDS011;40724;53.196;5.980;2022-10-13T03:57:15;19.25;;;12.98;;
54823;SDS011;40724;53.196;5.980;2022-10-13T03:59:41;23.58;;;14.52;;
54823;SDS011;40724;53.196;5.980;2022-10-13T04:02:07;17.27;;;14.40;;
54823;SDS011;40724;53.196;5.980;2022-10-13T04:04:33;20.00;;;15.10;;
54823;SDS011;40724;53.196;5.980;2022-10-13T04:07:00;21.80;;;15.43;;
54823;SDS011;40724;53.196;5.980;2022-10-13T04:09:26;19.85;;;14.07;;
54823;SDS011;40724;53.196;5.980;2022-10-13T04:11:52;22.48;;;14.90;;
54823;SDS011;40724;53.196;5.980;2022-10-13T04:14:18;21.38;;;13.90;;
54823;SDS011;40724;53.196;5.980;2022-10-13T04:16:45;25.30;;;15.73;;
54823;SDS011;40724;53.196;5.980;2022-10-13T04:19:12;23.38;;;15.57;;
54823;SDS011;40724;53.196;5.980;2022-10-13T04:21:38;23.20;;;16.83;;
54823;SDS011;40724;53.196;5.980;2022-10-13T04:24:05;27.00;;;15.02;;
54823;SDS011;40724;53.196;5.980;2022-10-13T04:26:32;23.55;;;15.43;;
54823;SDS011;40724;53.196;5.980;2022-10-13T04:28:59;20.00;;;15.13;;
54823;SDS011;40724;53.196;5.980;2022-10-13T04:31:26;22.00;;;16.50;;
54823;SDS011;40724;53.196;5.980;2022-10-13T04:33:53;21.45;;;14.57;;
54823;SDS011;40724;53.196;5.980;2022-10-13T04:36:19;20.25;;;15.25;;
54823;SDS011;40724;53.196;5.980;2022-10-13T04:38:46;21.15;;;16.33;;
54823;SDS011;40724;53.196;5.980;2022-10-13T04:41:13;23.67;;;17.23;;
54823;SDS011;40724;53.196;5.980;2022-10-13T04:43:39;25.77;;;16.98;;
54823;SDS011;40724;53.196;5.980;2022-10-13T04:46:11;26.20;;;16.00;;
54823;SDS011;40724;53.196;5.980;2022-10-13T04:48:38;24.95;;;16.48;;
54823;SDS011;40724;53.196;5.980;2022-10-13T04:51:09;28.10;;;19.02;;
54823;SDS011;40724;53.196;5.980;2022-10-13T04:53:35;22.73;;;16.60;;
54823;SDS011;40724;53.196;5.980;2022-10-13T04:56:02;24.70;;;17.63;;
54823;SDS011;40724;53.196;5.980;2022-10-13T04:58:28;26.20;;;17.85;;
54823;SDS011;40724;53.196;5.980;2022-10-13T05:00:58;24.15;;;17.50;;
54823;SDS011;40724;53.196;5.980;2022-10-13T05:03:24;23.52;;;16.38;;
54823;SDS011;40724;53.196;5.980;2022-10-13T05:05:50;24.45;;;17.70;;
54823;SDS011;40724;53.196;5.980;2022-10-13T05:08:16;29.80;;;19.40;;
54823;SDS011;40724;53.196;5.980;2022-10-13T05:10:51;28.17;;;17.38;;
54823;SDS011;40724;53.196;5.980;2022-10-13T05:13:17;24.50;;;17.65;;
54823;SDS011;40724;53.196;5.980;2022-10-13T05:15:43;24.38;;;17.80;;
54823;SDS011;40724;53.196;5.980;2022-10-13T05:18:09;23.00;;;16.52;;
54823;SDS011;40724;53.196;5.980;2022-10-13T05:20:35;25.23;;;18.02;;
54823;SDS011;40724;53.196;5.980;2022-10-13T05:23:01;27.35;;;16.38;;
54823;SDS011;40724;53.196;5.980;2022-10-13T05:25:27;27.83;;;18.67;;
54823;SDS011;40724;53.196;5.980;2022-10-13T05:27:53;27.33;;;19.10;;
54823;SDS011;40724;53.196;5.980;2022-10-13T05:30:19;27.40;;;17.65;;
54823;SDS011;40724;53.196;5.980;2022-10-13T05:32:45;26.35;;;19.15;;
54823;SDS011;40724;53.196;5.980;2022-10-13T05:35:12;28.75;;;19.10;;
54823;SDS011;40724;53.196;5.980;2022-10-13T05:37:38;26.90;;;18.92;;
54823;SDS011;40724;53.196;5.980;2022-10-13T05:40:04;30.38;;;19.02;;
54823;SDS011;40724;53.196;5.980;2022-10-13T05:42:30;24.00;;;18.27;;
54823;SDS011;40724;53.196;5.980;2022-10-13T05:44:59;28.67;;;20.10;;
54823;SDS011;40724;53.196;5.980;2022-10-13T05:47:25;23.70;;;19.20;;
54823;SDS011;40724;53.196;5.980;2022-10-13T05:49:55;31.27;;;18.20;;
54823;SDS011;40724;53.196;5.980;2022-10-13T05:52:22;25.15;;;18.75;;
54823;SDS011;40724;53.196;5.980;2022-10-13T05:54:50;28.25;;;19.00;;
54823;SDS011;40724;53.196;5.980;2022-10-13T05:57:22;28.08;;;18.13;;
54823;SDS011;40724;53.196;5.980;2022-10-13T05:59:53;32.10;;;20.33;;
54823;SDS011;40724;53.196;5.980;2022-10-13T06:02:21;31.65;;;19.90;;
54823;SDS011;40724;53.196;5.980;2022-10-13T06:04:50;36.22;;;21.95;;
54823;SDS011;40724;53.196;5.980;2022-10-13T06:07:17;31.50;;;22.05;;
54823;SDS011;40724;53.196;5.980;2022-10-13T06:09:43;26.77;;;20.08;;
54823;SDS011;40724;53.196;5.980;2022-10-13T06:12:09;33.50;;;20.75;;
54823;SDS011;40724;53.196;5.980;2022-10-13T06:14:35;30.38;;;21.42;;
54823;SDS011;40724;53.196;5.980;2022-10-13T06:17:02;35.22;;;22.90;;
54823;SDS011;40724;53.196;5.980;2022-10-13T06:19:28;31.38;;;21.48;;
54823;SDS011;40724;53.196;5.980;2022-10-13T06:21:54;34.50;;;21.77;;
54823;SDS011;40724;53.196;5.980;2022-10-13T06:24:20;27.40;;;21.05;;
54823;SDS011;40724;53.196;5.980;2022-10-13T06:26:46;29.02;;;18.95;;
54823;SDS011;40724;53.196;5.980;2022-10-13T06:29:13;28.08;;;19.35;;
54823;SDS011;40724;53.196;5.980;2022-10-13T06:31:39;30.63;;;20.60;;
54823;SDS011;40724;53.196;5.980;2022-10-13T06:34:05;29.95;;;20.30;;
54823;SDS011;40724;53.196;5.980;2022-10-13T06:36:31;31.00;;;20.70;;
54823;SDS011;40724;53.196;5.980;2022-10-13T06:38:57;31.77;;;21.08;;
54823;SDS011;40724;53.196;5.980;2022-10-13T06:41:23;30.52;;;21.20;;
54823;SDS011;40724;53.196;5.980;2022-10-13T06:43:49;31.58;;;20.77;;
54823;SDS011;40724;53.196;5.980;2022-10-13T06:46:15;29.02;;;20.00;;
54823;SDS011;40724;53.196;5.980;2022-10-13T06:48:41;28.02;;;20.77;;
54823;SDS011;40724;53.196;5.980;2022-10-13T06:51:09;29.08;;;19.92;;
54823;SDS011;40724;53.196;5.980;2022-10-13T06:53:35;30.35;;;22.08;;
54823;SDS011;40724;53.196;5.980;2022-10-13T06:56:02;32.08;;;21.95;;
54823;SDS011;40724;53.196;5.980;2022-10-13T06:58:28;30.90;;;22.17;;
54823;SDS011;40724;53.196;5.980;2022-10-13T07:00:55;32.05;;;21.83;;
54823;SDS011;40724;53.196;5.980;2022-10-13T07:03:21;30.23;;;21.88;;
54823;SDS011;40724;53.196;5.980;2022-10-13T07:05:48;30.98;;;23.83;;
54823;SDS011;40724;53.196;5.980;2022-10-13T07:08:14;33.28;;;22.67;;
54823;SDS011;40724;53.196;5.980;2022-10-13T07:10:40;33.83;;;22.95;;
54823;SDS011;40724;53.196;5.980;2022-10-13T07:13:06;31.23;;;22.42;;
54823;SDS011;40724;53.196;5.980;2022-10-13T07:15:32;33.72;;;23.38;;
54823;SDS011;40724;53.196;5.980;2022-10-13T07:17:58;32.95;;;23.23;;
54823;SDS011;40724;53.196;5.980;2022-10-13T07:20:24;34.45;;;24.63;;
54823;SDS011;40724;53.196;5.980;2022-10-13T07:22:53;37.75;;;25.23;;
54823;SDS011;40724;53.196;5.980;2022-10-13T07:25:19;41.40;;;25.73;;
54823;SDS011;40724;53.196;5.980;2022-10-13T07:27:46;34.55;;;23.17;;
54823;SDS011;40724;53.196;5.980;2022-10-13T07:30:12;34.83;;;24.63;;
54823;SDS011;40724;53.196;5.980;2022-10-13T07:32:39;41.22;;;27.30;;
54823;SDS011;40724;53.196;5.980;2022-10-13T07:35:09;34.05;;;25.33;;
54823;SDS011;40724;53.196;5.980;2022-10-13T07:37:36;35.83;;;24.77;;
54823;SDS011;40724;53.196;5.980;2022-10-13T07:40:05;39.50;;;24.17;;
54823;SDS011;40724;53.196;5.980;2022-10-13T07:42:32;40.53;;;27.95;;
54823;SDS011;40724;53.196;5.980;2022-10-13T07:44:58;40.00;;;26.88;;
54823;SDS011;40724;53.196;5.980;2022-10-13T07:47:24;39.38;;;28.33;;
54823;SDS011;40724;53.196;5.980;2022-10-13T07:49:50;39.88;;;26.38;;
54823;SDS011;40724;53.196;5.980;2022-10-13T07:52:18;37.33;;;26.80;;
54823;SDS011;40724;53.196;5.980;2022-10-13T07:54:44;40.25;;;28.02;;
54823;SDS011;40724;53.196;5.980;2022-10-13T07:57:10;35.17;;;25.58;;
54823;SDS011;40724;53.196;5.980;2022-10-13T07:59:36;37.47;;;27.80;;
54823;SDS011;40724;53.196;5.980;2022-10-13T08:02:03;34.15;;;25.45;;
54823;SDS011;40724;53.196;5.980;2022-10-13T08:04:29;45.30;;;27.95;;
54823;SDS011;40724;53.196;5.980;2022-10-13T08:06:55;42.35;;;26.45;;
54823;SDS011;40724;53.196;5.980;2022-10-13T08:09:22;34.63;;;25.27;;
54823;SDS011;40724;53.196;5.980;2022-10-13T08:11:49;42.13;;;26.75;;
54823;SDS011;40724;53.196;5.980;2022-10-13T08:14:15;44.67;;;27.70;;
54823;SDS011;40724;53.196;5.980;2022-10-13T08:16:41;43.50;;;28.05;;
54823;SDS011;40724;53.196;5.980;2022-10-13T08:19:13;37.75;;;25.85;;
54823;SDS011;40724;53.196;5.980;2022-10-13T08:21:40;40.20;;;28.65;;
54823;SDS011;40724;53.196;5.980;2022-10-13T08:24:08;34.30;;;26.17;;
54823;SDS011;40724;53.196;5.980;2022-10-13T08:26:35;44.92;;;29.50;;
54823;SDS011;40724;53.196;5.980;2022-10-13T08:29:01;39.60;;;28.60;;
54823;SDS011;40724;53.196;5.980;2022-10-13T08:31:27;43.30;;;29.90;;
54823;SDS011;40724;53.196;5.980;2022-10-13T08:33:53;47.97;;;28.73;;
54823;SDS011;40724;53.196;5.980;2022-10-13T08:36:19;43.78;;;29.27;;
54823;SDS011;40724;53.196;5.980;2022-10-13T08:38:45;54.03;;;30.92;;
54823;SDS011;40724;53.196;5.980;2022-10-13T08:41:16;43.10;;;32.13;;
54823;SDS011;40724;53.196;5.980;2022-10-13T08:43:44;48.25;;;30.38;;
54823;SDS011;40724;53.196;5.980;2022-10-13T08:46:13;38.60;;;29.55;;
54823;SDS011;40724;53.196;5.980;2022-10-13T08:48:40;41.70;;;30.25;;
54823;SDS011;40724;53.196;5.980;2022-10-13T08:51:07;42.05;;;29.77;;
54823;SDS011;40724;53.196;5.980;2022-10-13T08:53:34;52.28;;;30.50;;
54823;SDS011;40724;53.196;5.980;2022-10-13T08:56:09;47.72;;;29.08;;
54823;SDS011;40724;53.196;5.980;2022-10-13T08:58:36;42.47;;;28.25;;
54823;SDS011;40724;53.196;5.980;2022-10-13T09:03:29;35.75;;;25.95;;
54823;SDS011;40724;53.196;5.980;2022-10-13T09:06:10;41.95;;;26.65;;
54823;SDS011;40724;53.196;5.980;2022-10-13T09:08:39;38.10;;;27.77;;
54823;SDS011;40724;53.196;5.980;2022-10-13T09:11:08;38.55;;;28.35;;
54823;SDS011;40724;53.196;5.980;2022-10-13T09:13:34;40.40;;;26.45;;
54823;SDS011;40724;53.196;5.980;2022-10-13T09:16:00;34.75;;;27.75;;
54823;SDS011;40724;53.196;5.980;2022-10-13T09:18:27;37.80;;;25.83;;
54823;SDS011;40724;53.196;5.980;2022-10-13T09:23:36;35.50;;;24.83;;
54823;SDS011;40724;53.196;5.980;2022-10-13T09:26:05;35.95;;;22.73;;
54823;SDS011;40724;53.196;5.980;2022-10-13T09:28:32;34.75;;;24.02;;
54823;SDS011;40724;53.196;5.980;2022-10-13T09:31:04;34.67;;;24.58;;
54823;SDS011;40724;53.196;5.980;2022-10-13T09:33:34;32.00;;;23.58;;
54823;SDS011;40724;53.196;5.980;2022-10-13T09:38:27;31.40;;;22.65;;
54823;SDS011;40724;53.196;5.980;2022-10-13T09:40:57;28.00;;;21.83;;
54823;SDS011;40724;53.196;5.980;2022-10-13T09:43:31;31.88;;;24.42;;
54823;SDS011;40724;53.196;5.980;2022-10-13T09:45:58;31.67;;;23.02;;
54823;SDS011;40724;53.196;5.980;2022-10-13T09:48:27;33.33;;;22.45;;
54823;SDS011;40724;53.196;5.980;2022-10-13T09:50:55;30.00;;;21.67;;
54823;SDS011;40724;53.196;5.980;2022-10-13T09:55:47;29.92;;;21.10;;
54823;SDS011;40724;53.196;5.980;2022-10-13T10:00:40;29.67;;;22.08;;
54823;SDS011;40724;53.196;5.980;2022-10-13T10:03:12;34.88;;;25.15;;
54823;SDS011;40724;53.196;5.980;2022-10-13T10:05:49;33.85;;;23.35;;
54823;SDS011;40724;53.196;5.980;2022-10-13T10:11:02;33.35;;;23.20;;
54823;SDS011;40724;53.196;5.980;2022-10-13T10:13:29;27.23;;;20.73;;
54823;SDS011;40724;53.196;5.980;2022-10-13T10:16:04;35.97;;;22.38;;
54823;SDS011;40724;53.196;5.980;2022-10-13T10:21:29;33.60;;;21.55;;
54823;SDS011;40724;53.196;5.980;2022-10-13T10:24:20;34.75;;;25.02;;
54823;SDS011;40724;53.196;5.980;2022-10-13T10:27:17;34.72;;;21.85;;
54823;SDS011;40724;53.196;5.980;2022-10-13T10:29:49;31.23;;;21.08;;
54823;SDS011;40724;53.196;5.980;2022-10-13T10:40:35;32.90;;;20.92;;
54823;SDS011;40724;53.196;5.980;2022-10-13T10:45:36;29.17;;;19.02;;
54823;SDS011;40724;53.196;5.980;2022-10-13T10:48:20;26.20;;;19.45;;
54823;SDS011;40724;53.196;5.980;2022-10-13T10:50:48;28.25;;;19.40;;
54823;SDS011;40724;53.196;5.980;2022-10-13T10:55:46;23.77;;;16.77;;
54823;SDS011;40724;53.196;5.980;2022-10-13T10:58:25;26.48;;;18.40;;
54823;SDS011;40724;53.196;5.980;2022-10-13T11:03:28;24.20;;;16.13;;
54823;SDS011;40724;53.196;5.980;2022-10-13T11:06:00;21.65;;;15.30;;
54823;SDS011;40724;53.196;5.980;2022-10-13T11:13:48;19.27;;;15.48;;
54823;SDS011;40724;53.196;5.980;2022-10-13T11:21:20;19.27;;;13.65;;
54823;SDS011;40724;53.196;5.980;2022-10-13T11:23:47;21.45;;;13.32;;
54823;SDS011;40724;53.196;5.980;2022-10-13T11:26:18;21.05;;;13.85;;
54823;SDS011;40724;53.196;5.980;2022-10-13T11:28:45;17.80;;;12.77;;
54823;SDS011;40724;53.196;5.980;2022-10-13T11:38:49;15.18;;;10.13;;
54823;SDS011;40724;53.196;5.980;2022-10-13T11:41:18;16.73;;;10.95;;
54823;SDS011;40724;53.196;5.980;2022-10-13T11:46:21;15.18;;;9.05;;
54823;SDS011;40724;53.196;5.980;2022-10-13T11:49:02;15.02;;;9.10;;
54823;SDS011;40724;53.196;5.980;2022-10-13T11:54:18;10.93;;;8.50;;
54823;SDS011;40724;53.196;5.980;2022-10-13T11:56:51;12.25;;;8.15;;
54823;SDS011;40724;53.196;5.980;2022-10-13T11:59:43;11.98;;;8.18;;
54823;SDS011;40724;53.196;5.980;2022-10-13T12:04:30;8.07;;;5.47;;
54823;SDS011;40724;53.196;5.980;2022-10-13T12:07:00;11.20;;;5.32;;
54823;SDS011;40724;53.196;5.980;2022-10-13T12:09:28;11.57;;;5.65;;
54823;SDS011;40724;53.196;5.980;2022-10-13T12:12:00;8.30;;;4.85;;
54823;SDS011;40724;53.196;5.980;2022-10-13T12:14:31;9.32;;;5.07;;
54823;SDS011;40724;53.196;5.980;2022-10-13T12:16:58;10.38;;;4.10;;
54823;SDS011;40724;53.196;5.980;2022-10-13T12:19:26;7.13;;;3.38;;
54823;SDS011;40724;53.196;5.980;2022-10-13T12:21:54;6.55;;;3.80;;
54823;SDS011;40724;53.196;5.980;2022-10-13T12:24:21;9.73;;;3.90;;
54823;SDS011;40724;53.196;5.980;2022-10-13T12:26:48;9.90;;;4.15;;
54823;SDS011;40724;53.196;5.980;2022-10-13T12:29:14;5.75;;;3.55;;
54823;SDS011;40724;53.196;5.980;2022-10-13T12:31:43;7.50;;;3.83;;
54823;SDS011;40724;53.196;5.980;2022-10-13T12:34:12;7.88;;;3.30;;
54823;SDS011;40724;53.196;5.980;2022-10-13T12:36:41;7.27;;;3.47;;
54823;SDS011;40724;53.196;5.980;2022-10-13T12:39:11;8.73;;;5.03;;
54823;SDS011;40724;53.196;5.980;2022-10-13T12:41:39;5.53;;;3.85;;
54823;SDS011;40724;53.196;5.980;2022-10-13T12:44:06;6.97;;;3.28;;
54823;SDS011;40724;53.196;5.980;2022-10-13T12:49:05;14.07;;;3.60;;
54823;SDS011;40724;53.196;5.980;2022-10-13T12:51:32;5.72;;;3.38;;
54823;SDS011;40724;53.196;5.980;2022-10-13T12:53:59;15.18;;;3.42;;
54823;SDS011;40724;53.196;5.980;2022-10-13T12:56:30;8.10;;;3.65;;
54823;SDS011;40724;53.196;5.980;2022-10-13T12:58:57;11.80;;;3.75;;
54823;SDS011;40724;53.196;5.980;2022-10-13T13:01:31;7.57;;;3.40;;
54823;SDS011;40724;53.196;5.980;2022-10-13T13:03:59;10.70;;;3.15;;
54823;SDS011;40724;53.196;5.980;2022-10-13T13:06:27;6.88;;;3.28;;
54823;SDS011;40724;53.196;5.980;2022-10-13T13:09:17;5.88;;;2.97;;
54823;SDS011;40724;53.196;5.980;2022-10-13T13:11:45;4.65;;;2.72;;
54823;SDS011;40724;53.196;5.980;2022-10-13T13:19:34;6.75;;;2.30;;
54823;SDS011;40724;53.196;5.980;2022-10-13T13:22:02;7.15;;;3.03;;
54823;SDS011;40724;53.196;5.980;2022-10-13T13:24:28;6.65;;;2.92;;
54823;SDS011;40724;53.196;5.980;2022-10-13T13:26:54;10.15;;;2.80;;
54823;SDS011;40724;53.196;5.980;2022-10-13T13:29:20;13.05;;;3.03;;
54823;SDS011;40724;53.196;5.980;2022-10-13T13:31:46;10.80;;;2.63;;
54823;SDS011;40724;53.196;5.980;2022-10-13T13:34:13;6.13;;;2.33;;
54823;SDS011;40724;53.196;5.980;2022-10-13T13:36:39;8.70;;;2.53;;
54823;SDS011;40724;53.196;5.980;2022-10-13T13:39:07;7.60;;;2.45;;
54823;SDS011;40724;53.196;5.980;2022-10-13T13:41:38;5.38;;;2.22;;
54823;SDS011;40724;53.196;5.980;2022-10-13T13:44:04;4.72;;;2.50;;
54823;SDS011;40724;53.196;5.980;2022-10-13T13:46:30;6.30;;;2.17;;
54823;SDS011;40724;53.196;5.980;2022-10-13T13:48:57;8.57;;;2.20;;
54823;SDS011;40724;53.196;5.980;2022-10-13T13:51:23;4.70;;;2.25;;
54823;SDS011;40724;53.196;5.980;2022-10-13T13:53:49;7.10;;;2.45;;
54823;SDS011;40724;53.196;5.980;2022-10-13T13:56:16;6.32;;;2.17;;
54823;SDS011;40724;53.196;5.980;2022-10-13T13:58:42;5.90;;;2.53;;
54823;SDS011;40724;53.196;5.980;2022-10-13T14:01:09;4.28;;;2.90;;
54823;SDS011;40724;53.196;5.980;2022-10-13T14:03:35;8.38;;;2.88;;
54823;SDS011;40724;53.196;5.980;2022-10-13T14:06:01;6.50;;;2.80;;
54823;SDS011;40724;53.196;5.980;2022-10-13T14:08:31;5.65;;;2.20;;
54823;SDS011;40724;53.196;5.980;2022-10-13T14:10:58;14.18;;;2.63;;
54823;SDS011;40724;53.196;5.980;2022-10-13T14:13:24;5.57;;;2.90;;
54823;SDS011;40724;53.196;5.980;2022-10-13T14:15:56;5.63;;;2.20;;
54823;SDS011;40724;53.196;5.980;2022-10-13T14:18:23;6.18;;;2.67;;
54823;SDS011;40724;53.196;5.980;2022-10-13T14:20:49;4.25;;;1.70;;
54823;SDS011;40724;53.196;5.980;2022-10-13T14:23:15;3.28;;;1.73;;
54823;SDS011;40724;53.196;5.980;2022-10-13T14:25:41;5.75;;;2.10;;
54823;SDS011;40724;53.196;5.980;2022-10-13T14:28:07;5.15;;;2.38;;
54823;SDS011;40724;53.196;5.980;2022-10-13T14:30:33;4.90;;;2.58;;
54823;SDS011;40724;53.196;5.980;2022-10-13T14:32:59;5.57;;;2.47;;
54823;SDS011;40724;53.196;5.980;2022-10-13T14:35:28;10.32;;;2.88;;
54823;SDS011;40724;53.196;5.980;2022-10-13T14:37:55;5.10;;;2.17;;
54823;SDS011;40724;53.196;5.980;2022-10-13T14:40:21;4.57;;;1.75;;
54823;SDS011;40724;53.196;5.980;2022-10-13T14:42:47;4.43;;;1.95;;
54823;SDS011;40724;53.196;5.980;2022-10-13T14:45:13;6.78;;;1.90;;
54823;SDS011;40724;53.196;5.980;2022-10-13T14:47:40;2.83;;;1.60;;
54823;SDS011;40724;53.196;5.980;2022-10-13T14:50:09;6.30;;;2.55;;
54823;SDS011;40724;53.196;5.980;2022-10-13T14:52:35;8.98;;;2.38;;
54823;SDS011;40724;53.196;5.980;2022-10-13T14:55:02;4.20;;;2.10;;
54823;SDS011;40724;53.196;5.980;2022-10-13T14:57:28;9.00;;;2.78;;
54823;SDS011;40724;53.196;5.980;2022-10-13T14:59:54;6.50;;;3.50;;
54823;SDS011;40724;53.196;5.980;2022-10-13T15:02:20;4.43;;;1.77;;
54823;SDS011;40724;53.196;5.980;2022-10-13T15:04:46;3.45;;;1.88;;
54823;SDS011;40724;53.196;5.980;2022-10-13T15:07:12;5.95;;;2.08;;
54823;SDS011;40724;53.196;5.980;2022-10-13T15:09:38;7.07;;;2.17;;
54823;SDS011;40724;53.196;5.980;2022-10-13T15:12:04;4.28;;;2.03;;
54823;SDS011;40724;53.196;5.980;2022-10-13T15:14:30;5.40;;;2.20;;
54823;SDS011;40724;53.196;5.980;2022-10-13T15:16:56;6.70;;;2.55;;
54823;SDS011;40724;53.196;5.980;2022-10-13T15:19:22;3.65;;;2.10;;
54823;SDS011;40724;53.196;5.980;2022-10-13T15:21:48;5.38;;;2.35;;
54823;SDS011;40724;53.196;5.980;2022-10-13T15:24:16;4.65;;;2.03;;
54823;SDS011;40724;53.196;5.980;2022-10-13T15:26:42;6.30;;;2.75;;
54823;SDS011;40724;53.196;5.980;2022-10-13T15:29:08;11.57;;;3.72;;
54823;SDS011;40724;53.196;5.980;2022-10-13T15:31:34;5.07;;;3.47;;
54823;SDS011;40724;53.196;5.980;2022-10-13T15:34:00;10.23;;;3.38;;
54823;SDS011;40724;53.196;5.980;2022-10-13T15:36:26;8.20;;;3.63;;
54823;SDS011;40724;53.196;5.980;2022-10-13T15:38:52;3.42;;;2.50;;
54823;SDS011;40724;53.196;5.980;2022-10-13T15:41:18;6.00;;;2.90;;
54823;SDS011;40724;53.196;5.980;2022-10-13T15:43:47;5.78;;;2.33;;
54823;SDS011;40724;53.196;5.980;2022-10-13T15:46:14;5.93;;;2.60;;
54823;SDS011;40724;53.196;5.980;2022-10-13T15:48:51;8.50;;;2.90;;
54823;SDS011;40724;53.196;5.980;2022-10-13T15:51:20;7.03;;;3.25;;
54823;SDS011;40724;53.196;5.980;2022-10-13T15:53:48;7.25;;;2.28;;
54823;SDS011;40724;53.196;5.980;2022-10-13T15:56:14;4.65;;;1.75;;
54823;SDS011;40724;53.196;5.980;2022-10-13T15:58:40;9.25;;;2.05;;
54823;SDS011;40724;53.196;5.980;2022-10-13T16:01:07;4.53;;;1.50;;
54823;SDS011;40724;53.196;5.980;2022-10-13T16:03:33;4.20;;;2.25;;